Time;durP1;ratioP1;P1;durP2;ratioP2;P2;SDS_P1;SDS_P2;PMS_P1;PMS_P2;Temp;Humidity;BMP_temperature;BMP_pressure;BME280_temperature;BME280_humidity;BME280_pressure;Samples;Min_cycle;Max_cycle;Signal;HPM_P1;HPM_P2
2023/07/19 03:15:32;;;;;;;2.05;0.80;;;26.20;56.00;;;;;;10514597;27;20118;-34
2023/07/19 03:20:34;;;;;;;2.17;1.10;;;26.10;56.60;;;;;;10525032;28;20048;-34
2023/07/19 03:25:36;;;;;;;2.28;1.25;;;26.10;56.60;;;;;;10525702;28;20064;-34
2023/07/19 03:30:39;;;;;;;2.33;0.90;;;26.10;56.60;;;;;;10526909;28;20068;-34
2023/07/19 03:35:41;;;;;;;2.58;1.20;;;26.20;56.80;;;;;;10526904;28;20130;-34
2023/07/19 03:40:43;;;;;;;1.65;1.02;;;26.20;56.90;;;;;;10524694;28;20139;-35
2023/07/19 03:45:46;;;;;;;2.53;1.05;;;26.20;56.90;;;;;;10524015;28;20479;-35
2023/07/19 03:50:57;;;;;;;2.25;1.30;;;26.20;57.00;;;;;;10524698;28;20129;-35
2023/07/19 03:56:00;;;;;;;2.20;1.08;;;26.20;57.10;;;;;;10526703;28;20044;-35
2023/07/19 04:01:03;;;;;;;2.92;1.23;;;26.20;57.70;;;;;;10523638;28;20507;-35
2023/07/19 04:06:05;;;;;;;3.10;1.30;;;26.20;57.30;;;;;;10521133;28;20040;-35
2023/07/19 04:11:07;;;;;;;3.10;1.20;;;26.20;57.40;;;;;;10527684;28;20143;-35
2023/07/19 04:16:10;;;;;;;2.40;1.48;;;26.20;57.50;;;;;;10523087;28;20039;-36
2023/07/19 04:21:12;;;;;;;2.80;1.63;;;26.10;57.50;;;;;;10523461;28;20624;-34
2023/07/19 04:26:14;;;;;;;2.75;1.30;;;26.10;57.50;;;;;;10505359;28;20080;-35
2023/07/19 04:31:17;;;;;;;4.93;1.20;;;26.10;57.60;;;;;;10494311;28;20056;-35
2023/07/19 04:36:19;;;;;;;2.08;1.10;;;26.10;57.70;;;;;;10492475;28;20504;-34
2023/07/19 04:41:21;;;;;;;4.53;1.25;;;26.10;57.70;;;;;;10494586;28;20041;-35
2023/07/19 04:46:25;;;;;;;1.88;1.63;;;26.10;57.70;;;;;;10491928;28;20122;-34
2023/07/19 04:51:27;;;;;;;5.40;1.25;;;26.10;57.80;;;;;;10493803;28;20076;-34
2023/07/19 04:56:28;;;;;;;2.65;1.15;;;26.10;57.80;;;;;;10487284;28;20045;-34
2023/07/19 05:01:31;;;;;;;2.78;1.02;;;26.10;57.90;;;;;;10492334;28;20470;-35
2023/07/19 05:06:33;;;;;;;2.17;1.20;;;26.10;58.00;;;;;;10494219;28;20048;-34
2023/07/19 05:11:35;;;;;;;1.85;0.80;;;26.10;58.10;;;;;;10492959;28;20048;-35
2023/07/19 05:16:39;;;;;;;2.20;1.10;;;26.10;58.10;;;;;;10491732;28;20672;-35
2023/07/19 05:21:40;;;;;;;2.42;1.33;;;26.10;58.10;;;;;;10493089;28;20608;-34
2023/07/19 05:26:44;;;;;;;1.25;1.02;;;26.10;58.20;;;;;;10493425;28;20075;-35
2023/07/19 05:31:47;;;;;;;2.13;0.80;;;26.10;58.20;;;;;;10492489;28;20048;-35
2023/07/19 05:36:49;;;;;;;2.05;1.00;;;26.10;58.20;;;;;;10491763;28;20549;-36
2023/07/19 05:41:51;;;;;;;2.10;0.95;;;26.00;58.30;;;;;;10487431;28;20049;-36
2023/07/19 05:46:54;;;;;;;5.65;1.52;;;26.10;58.20;;;;;;10491951;28;20064;-35
2023/07/19 05:51:56;;;;;;;4.13;1.23;;;25.00;62.20;;;;;;10490032;28;20072;-35
2023/07/19 05:56:58;;;;;;;5.60;1.45;;;25.10;62.30;;;;;;10492897;28;20537;-34
2023/07/19 06:02:02;;;;;;;4.63;1.10;;;23.80;66.80;;;;;;10491270;28;20040;-40
2023/07/19 06:07:04;;;;;;;3.85;1.00;;;25.10;61.60;;;;;;10490293;28;20063;-35
2023/07/19 06:12:06;;;;;;;4.35;1.30;;;24.50;64.10;;;;;;10490907;28;20056;-34
2023/07/19 06:17:09;;;;;;;2.97;1.10;;;25.30;61.50;;;;;;10487002;28;20127;-33
2023/07/19 06:22:11;;;;;;;3.47;1.00;;;25.80;59.90;;;;;;10491336;28;20044;-35
2023/07/19 06:27:16;;;;;;;3.42;1.02;;;25.20;61.10;;;;;;10489454;28;20514;-37
2023/07/19 06:32:19;;;;;;;3.53;1.10;;;24.90;62.50;;;;;;10488371;28;20136;-36
2023/07/19 06:37:21;;;;;;;4.70;1.15;;;24.20;67.90;;;;;;10493118;28;20040;-36
2023/07/19 06:42:23;;;;;;;;;;;24.10;67.20;;;;;;10489732;28;20551;-35
2023/07/19 06:47:28;;;;;;;2.85;0.98;;;24.10;67.80;;;;;;10489544;28;20009;-35
2023/07/19 06:52:30;;;;;;;4.75;1.40;;;23.80;70.20;;;;;;10482610;28;20048;-35
2023/07/19 06:57:31;;;;;;;;;;;23.00;75.30;;;;;;10489716;28;20671;-35
2023/07/19 07:02:35;;;;;;;4.72;1.85;;;23.00;76.00;;;;;;10489121;28;19924;-35
2023/07/19 07:07:37;;;;;;;3.83;1.50;;;22.30;83.20;;;;;;10495371;28;20535;-35
2023/07/19 07:12:39;;;;;;;6.13;1.45;;;22.50;86.50;;;;;;10487558;28;20163;-34
2023/07/19 07:17:43;;;;;;;4.82;1.73;;;22.70;85.10;;;;;;10489212;28;20163;-34
2023/07/19 07:22:45;;;;;;;5.72;1.35;;;22.60;82.50;;;;;;10489180;28;20189;-35
2023/07/19 07:27:47;;;;;;;6.90;1.80;;;23.40;75.70;;;;;;10486782;28;20079;-36
2023/07/19 07:32:50;;;;;;;5.03;1.98;;;22.80;80.90;;;;;;10480326;28;20051;-35
2023/07/19 07:37:52;;;;;;;3.47;1.33;;;23.30;78.20;;;;;;10487843;28;20047;-36
2023/07/19 07:42:54;;;;;;;7.30;1.55;;;22.80;82.10;;;;;;10488588;28;20134;-35
2023/07/19 07:47:57;;;;;;;;;;;23.20;79.80;;;;;;10489247;28;20041;-35
2023/07/19 07:52:59;;;;;;;4.15;1.75;;;22.90;85.00;;;;;;10487501;28;19963;-35
2023/07/19 07:58:01;;;;;;;4.88;1.98;;;22.90;80.90;;;;;;10493186;28;20093;-35
2023/07/19 08:03:04;;;;;;;;;;;22.60;84.50;;;;;;10489274;28;20604;-35
2023/07/19 08:08:07;;;;;;;10.05;2.28;;;23.30;81.60;;;;;;10489864;28;20023;-36
2023/07/19 08:13:10;;;;;;;2.88;1.60;;;24.20;77.10;;;;;;10494837;28;20056;-36
2023/07/19 08:18:13;;;;;;;6.50;1.45;;;23.80;75.10;;;;;;10492703;28;20087;-35
2023/07/19 08:23:15;;;;;;;3.42;1.77;;;24.00;75.60;;;;;;10495528;28;20045;-35
2023/07/19 08:28:17;;;;;;;5.93;1.80;;;22.90;86.50;;;;;;10494270;28;20076;-36
2023/07/19 08:33:22;;;;;;;5.07;1.70;;;22.20;89.80;;;;;;10493646;28;20083;-35
2023/07/19 08:38:24;;;;;;;3.08;1.20;;;22.80;85.80;;;;;;10495013;28;20504;-35
2023/07/19 08:43:27;;;;;;;5.00;1.30;;;23.20;80.30;;;;;;10491501;28;20080;-38
2023/07/19 08:48:32;;;;;;;3.40;1.48;;;23.20;87.20;;;;;;10495089;28;20055;-36
2023/07/19 08:53:34;;;;;;;3.03;1.20;;;24.50;76.20;;;;;;10494390;28;20052;-35
2023/07/19 08:58:39;;;;;;;7.30;1.60;;;23.50;78.50;;;;;;10493849;28;20076;-37
2023/07/19 09:03:42;;;;;;;3.33;0.95;;;23.60;77.60;;;;;;10492148;28;20045;-36
2023/07/19 09:08:46;;;;;;;7.22;1.70;;;24.30;75.00;;;;;;10493703;28;20040;-36
2023/07/19 09:13:53;;;;;;;2.58;0.85;;;24.00;80.20;;;;;;10492135;28;20145;-36
2023/07/19 09:18:58;;;;;;;8.30;1.33;;;24.50;70.50;;;;;;10492788;28;20072;-36
2023/07/19 09:24:04;;;;;;;5.30;1.52;;;24.30;71.60;;;;;;10494172;28;20098;-35
2023/07/19 09:29:06;;;;;;;2.63;1.27;;;25.00;67.90;;;;;;10493516;28;20053;-35
2023/07/19 09:34:10;;;;;;;2.78;1.20;;;24.80;70.80;;;;;;10491980;28;20554;-35
2023/07/19 09:39:11;;;;;;;3.15;1.30;;;24.50;70.90;;;;;;10492495;28;20044;-35
2023/07/19 09:44:15;;;;;;;3.90;0.95;;;25.00;68.90;;;;;;10491516;28;20068;-35
2023/07/19 09:49:18;;;;;;;4.32;1.10;;;24.90;69.20;;;;;;10491188;28;20047;-35
2023/07/19 09:54:22;;;;;;;3.13;1.13;;;24.90;69.00;;;;;;10493722;28;20096;-35
2023/07/19 09:59:28;;;;;;;2.42;0.90;;;25.30;66.60;;;;;;10490713;28;20072;-35
2023/07/19 10:04:37;;;;;;;2.78;1.00;;;24.70;69.70;;;;;;10491463;28;20131;-36
2023/07/19 10:09:40;;;;;;;4.68;0.90;;;23.90;77.00;;;;;;10491156;28;20040;-35
2023/07/19 10:14:52;;;;;;;9.18;1.08;;;24.80;69.90;;;;;;10489623;28;21073;-35
2023/07/19 10:20:07;;;;;;;3.00;0.98;;;25.40;67.10;;;;;;10490057;28;20044;-35
2023/07/19 10:25:09;;;;;;;1.75;0.90;;;25.10;67.00;;;;;;10489374;28;20166;-35
2023/07/19 10:30:12;;;;;;;1.77;1.05;;;26.10;63.40;;;;;;10491479;28;20048;-35
2023/07/19 10:35:33;;;;;;;7.00;1.08;;;25.50;66.50;;;;;;10488934;28;20228;-35
2023/07/19 10:40:34;;;;;;;2.80;1.00;;;24.80;68.80;;;;;;10484680;28;20072;-34
2023/07/19 10:45:37;;;;;;;3.13;0.80;;;24.70;69.90;;;;;;10490019;28;20072;-35
2023/07/19 10:50:43;;;;;;;4.90;0.98;;;25.60;64.60;;;;;;10486923;28;20091;-34
2023/07/19 10:55:45;;;;;;;3.42;1.17;;;24.30;71.70;;;;;;10493443;28;20409;-36
2023/07/19 11:00:47;;;;;;;4.05;1.10;;;24.40;70.30;;;;;;10485255;28;20076;-37
2023/07/19 11:05:52;;;;;;;6.45;1.08;;;24.10;70.70;;;;;;10489278;28;20075;-33
2023/07/19 11:10:56;;;;;;;3.85;0.93;;;24.50;70.10;;;;;;10486282;28;20048;-35
2023/07/19 11:15:59;;;;;;;3.92;0.60;;;24.50;71.00;;;;;;10489287;28;20052;-33
2023/07/19 11:21:03;;;;;;;2.33;1.05;;;25.60;65.90;;;;;;10487819;28;20147;-34
2023/07/19 11:26:08;;;;;;;1.98;0.80;;;25.00;66.90;;;;;;10489498;28;20052;-34
2023/07/19 11:31:11;;;;;;;3.47;0.77;;;24.60;70.10;;;;;;10488938;28;20045;-31
2023/07/19 11:36:15;;;;;;;2.30;0.77;;;24.50;65.90;;;;;;10494567;28;20087;-35
2023/07/19 11:41:17;;;;;;;3.47;0.70;;;24.10;68.80;;;;;;10497088;28;20409;-35
2023/07/19 11:46:19;;;;;;;3.28;0.88;;;25.70;65.00;;;;;;10496519;28;20469;-35
2023/07/19 11:51:22;;;;;;;;;;;24.70;65.00;;;;;;10496739;28;20067;-35
2023/07/19 11:56:24;;;;;;;3.05;0.95;;;24.20;66.60;;;;;;10495337;28;19976;-35
2023/07/19 12:01:26;;;;;;;4.45;0.90;;;24.80;68.40;;;;;;10495848;28;20040;-35
2023/07/19 12:06:30;;;;;;;4.38;0.90;;;25.00;66.00;;;;;;10495861;28;20083;-35
2023/07/19 12:11:32;;;;;;;3.33;1.30;;;23.60;73.80;;;;;;10494929;28;20103;-35
2023/07/19 12:16:34;;;;;;;7.50;1.25;;;24.70;67.70;;;;;;10495063;28;20055;-35
2023/07/19 12:21:38;;;;;;;2.63;0.98;;;25.60;63.20;;;;;;10493470;28;20048;-35
2023/07/19 12:26:40;;;;;;;9.40;1.17;;;26.20;62.00;;;;;;10495251;28;20060;-35
2023/07/19 12:31:42;;;;;;;2.10;1.10;;;24.30;69.80;;;;;;10496065;28;20109;-34
2023/07/19 12:36:47;;;;;;;;;;;24.30;69.60;;;;;;10497284;28;20147;-34
2023/07/19 12:41:49;;;;;;;1.98;0.80;;;24.90;69.40;;;;;;10494047;28;19943;-35
2023/07/19 12:46:51;;;;;;;1.92;0.65;;;25.70;65.80;;;;;;10494869;28;20063;-35
2023/07/19 12:51:55;;;;;;;4.72;0.68;;;26.70;61.50;;;;;;10493354;28;20045;-35
2023/07/19 12:56:57;;;;;;;4.65;0.82;;;26.20;62.80;;;;;;10497767;28;20099;-34
2023/07/19 13:01:59;;;;;;;1.42;0.90;;;25.80;61.50;;;;;;10492843;28;20401;-33
2023/07/19 13:07:03;;;;;;;3.67;0.85;;;25.80;64.20;;;;;;10493383;28;20442;-35
2023/07/19 13:12:06;;;;;;;7.35;0.80;;;25.90;61.50;;;;;;10493258;28;20509;-35
2023/07/19 13:17:09;;;;;;;1.52;0.70;;;25.50;65.60;;;;;;10492471;28;20049;-35
2023/07/19 13:22:12;;;;;;;2.63;0.77;;;24.80;68.00;;;;;;10493667;28;20040;-34
2023/07/19 13:27:14;;;;;;;3.75;0.98;;;24.70;69.40;;;;;;10491395;28;20045;-35
2023/07/19 13:32:16;;;;;;;2.92;1.08;;;24.70;68.40;;;;;;10490858;28;20128;-35
2023/07/19 13:37:19;;;;;;;3.08;1.20;;;24.50;70.30;;;;;;10493077;28;20136;-34
2023/07/19 13:42:21;;;;;;;1.42;0.70;;;23.90;73.30;;;;;;10492082;28;20048;-35
2023/07/19 13:47:23;;;;;;;5.18;1.52;;;26.40;63.90;;;;;;10491858;28;20098;-35
2023/07/19 13:52:27;;;;;;;2.10;0.88;;;26.30;62.60;;;;;;10491424;28;20064;-35
2023/07/19 13:57:29;;;;;;;3.88;0.80;;;24.40;76.00;;;;;;10490271;28;20070;-35
2023/07/19 14:02:33;;;;;;;5.80;1.30;;;25.20;69.10;;;;;;10490214;28;20048;-35
2023/07/19 14:07:37;;;;;;;4.78;1.35;;;24.60;72.20;;;;;;10490271;28;20041;-34
2023/07/19 14:12:39;;;;;;;2.05;1.10;;;24.70;71.60;;;;;;10490434;28;20051;-34
2023/07/19 14:17:41;;;;;;;4.53;1.30;;;26.00;65.80;;;;;;10490001;28;20050;-34
2023/07/19 14:22:44;;;;;;;3.88;1.15;;;24.20;77.70;;;;;;10490922;28;20114;-35
2023/07/19 14:27:47;;;;;;;2.70;1.25;;;25.00;71.40;;;;;;10486597;28;20115;-36
2023/07/19 14:32:49;;;;;;;2.70;1.40;;;25.50;69.30;;;;;;10489715;28;20048;-36
2023/07/19 14:37:52;;;;;;;3.00;1.15;;;24.50;71.60;;;;;;10487828;28;20066;-34
2023/07/19 14:42:54;;;;;;;4.53;1.38;;;24.90;72.60;;;;;;10489902;28;20155;-36
2023/07/19 14:47:55;;;;;;;;;;;25.10;67.80;;;;;;10489931;28;20110;-35
2023/07/19 14:52:58;;;;;;;4.18;1.33;;;24.80;72.00;;;;;;10490160;28;19970;-35
2023/07/19 14:58:00;;;;;;;1.45;0.82;;;25.30;67.50;;;;;;10488562;28;20086;-35
2023/07/19 15:03:02;;;;;;;5.63;0.90;;;24.30;75.00;;;;;;10488353;28;20075;-35
2023/07/19 15:08:06;;;;;;;2.72;0.63;;;25.40;66.90;;;;;;10484781;28;20047;-36
2023/07/19 15:13:08;;;;;;;6.03;1.55;;;25.70;67.70;;;;;;10484559;28;20083;-35
2023/07/19 15:18:10;;;;;;;1.92;1.23;;;25.20;69.00;;;;;;10488199;28;20072;-35
2023/07/19 15:23:13;;;;;;;6.50;1.20;;;25.40;68.50;;;;;;10497247;28;20048;-35
2023/07/19 15:28:15;;;;;;;3.08;1.00;;;26.60;62.90;;;;;;10479610;28;20049;-35
2023/07/19 15:33:17;;;;;;;3.15;1.05;;;25.90;64.40;;;;;;10487920;28;20049;-35
2023/07/19 15:38:24;;;;;;;3.13;1.02;;;24.10;73.80;;;;;;10499828;28;20595;-35
2023/07/19 15:43:26;;;;;;;4.32;0.90;;;25.30;68.50;;;;;;10482734;28;20114;-35
2023/07/19 15:48:28;;;;;;;3.30;1.08;;;26.40;64.30;;;;;;10488436;28;20106;-34
2023/07/19 15:53:36;;;;;;;4.10;1.10;;;25.80;66.90;;;;;;10473875;28;20076;-36
2023/07/19 15:58:38;;;;;;;1.75;0.80;;;26.50;63.50;;;;;;10488595;28;20047;-36
2023/07/19 16:03:40;;;;;;;3.88;0.73;;;26.70;62.10;;;;;;10480082;28;20697;-36
2023/07/19 16:08:44;;;;;;;3.28;1.00;;;26.20;65.20;;;;;;10486954;28;20523;-35
2023/07/19 16:13:47;;;;;;;5.28;1.35;;;26.80;63.50;;;;;;10487972;28;20502;-35
2023/07/19 16:18:49;;;;;;;2.10;0.85;;;27.00;63.10;;;;;;10488215;28;20094;-35
2023/07/19 16:23:52;;;;;;;2.03;0.85;;;26.50;65.10;;;;;;10485924;28;20053;-36
2023/07/19 16:28:54;;;;;;;1.85;0.77;;;27.30;62.60;;;;;;10492225;28;20037;-36
2023/07/19 16:33:56;;;;;;;4.57;1.00;;;28.30;60.50;;;;;;10492989;28;20043;-35
2023/07/19 16:38:59;;;;;;;1.15;0.77;;;28.10;58.30;;;;;;10495497;28;20117;-35
2023/07/19 16:44:01;;;;;;;1.38;0.90;;;27.80;60.90;;;;;;10494937;28;20076;-35
2023/07/19 16:49:03;;;;;;;2.38;0.80;;;26.80;63.00;;;;;;10494542;28;20090;-35
2023/07/19 16:54:07;;;;;;;1.77;0.70;;;28.10;60.30;;;;;;10500027;28;20079;-35
2023/07/19 16:59:09;;;;;;;3.20;0.68;;;27.50;62.30;;;;;;10494382;28;20123;-35
2023/07/19 17:04:11;;;;;;;3.53;0.75;;;28.10;62.30;;;;;;10495029;28;20610;-35
2023/07/19 17:09:15;;;;;;;1.98;1.00;;;26.30;64.20;;;;;;10493855;28;20055;-34
2023/07/19 17:14:17;;;;;;;1.60;0.90;;;26.00;68.10;;;;;;10485685;28;20041;-34
2023/07/19 17:19:19;;;;;;;4.38;0.80;;;25.80;70.90;;;;;;10493823;28;20041;-35
2023/07/19 17:24:22;;;;;;;3.63;0.90;;;27.50;63.70;;;;;;10494383;28;20053;-35
2023/07/19 17:29:24;;;;;;;3.25;1.20;;;26.00;67.90;;;;;;10492660;28;20546;-35
2023/07/19 17:34:26;;;;;;;2.80;1.27;;;25.80;67.00;;;;;;10490366;28;20459;-34
2023/07/19 17:39:29;;;;;;;3.72;1.00;;;25.40;66.20;;;;;;10492530;28;20139;-34
2023/07/19 17:44:31;;;;;;;2.65;0.80;;;25.80;70.80;;;;;;10491844;28;20400;-35
2023/07/19 17:49:33;;;;;;;3.15;0.60;;;26.30;69.60;;;;;;10492345;28;20430;-36
2023/07/19 17:54:36;;;;;;;1.25;0.85;;;27.40;63.70;;;;;;10494125;28;20098;-36
2023/07/19 17:59:41;;;;;;;2.88;0.93;;;25.40;73.00;;;;;;10490613;28;20513;-34
2023/07/19 18:04:44;;;;;;;1.65;0.60;;;25.90;68.50;;;;;;10491649;28;20055;-35
2023/07/19 18:09:47;;;;;;;1.92;0.75;;;25.70;69.10;;;;;;10490235;28;20109;-36
2023/07/19 18:14:49;;;;;;;2.28;0.90;;;25.50;70.50;;;;;;10474296;28;20087;-35
2023/07/19 18:19:51;;;;;;;1.45;0.70;;;24.80;75.00;;;;;;10489922;28;20044;-35
2023/07/19 18:24:54;;;;;;;;;;;25.40;69.80;;;;;;10491837;28;20123;-35
2023/07/19 18:29:55;;;;;;;0.68;0.57;;;25.60;69.70;;;;;;10490406;28;20031;-36
2023/07/19 18:34:57;;;;;;;3.10;0.60;;;26.70;63.00;;;;;;10488379;28;20534;-35
2023/07/19 18:40:01;;;;;;;1.40;0.52;;;26.10;65.10;;;;;;10489856;28;20428;-36
2023/07/19 18:45:02;;;;;;;1.98;0.77;;;27.20;64.30;;;;;;10484312;28;20127;-36
2023/07/19 18:50:05;;;;;;;0.60;0.50;;;27.20;62.20;;;;;;10489823;28;20125;-36
2023/07/19 18:55:09;;;;;;;1.13;0.60;;;27.60;62.50;;;;;;10488592;28;20048;-36
2023/07/19 19:00:12;;;;;;;0.82;0.45;;;27.90;61.10;;;;;;10487988;28;20170;-35
2023/07/19 19:05:14;;;;;;;1.15;0.50;;;27.20;62.60;;;;;;10490215;28;20040;-36
2023/07/19 19:10:19;;;;;;;1.33;0.55;;;27.60;61.40;;;;;;10488434;28;20141;-35
2023/07/19 19:15:21;;;;;;;1.95;0.55;;;28.20;59.60;;;;;;10487787;28;20057;-36
2023/07/19 19:20:23;;;;;;;4.63;0.73;;;28.50;58.70;;;;;;10491408;28;20048;-34
2023/07/19 19:25:26;;;;;;;2.17;0.82;;;27.60;59.70;;;;;;10486280;28;20435;-33
2023/07/19 19:30:30;;;;;;;5.13;1.20;;;26.90;62.30;;;;;;10488462;28;20147;-35
2023/07/19 19:35:32;;;;;;;0.68;0.50;;;26.90;62.50;;;;;;10484932;28;20141;-35
2023/07/19 19:40:36;;;;;;;0.57;0.52;;;27.90;60.10;;;;;;10482142;28;20676;-35
2023/07/19 19:45:37;;;;;;;0.82;0.50;;;28.00;59.60;;;;;;10488435;28;20041;-35
2023/07/19 19:50:39;;;;;;;1.90;0.73;;;28.40;58.40;;;;;;10486874;28;20127;-36
2023/07/19 19:55:42;;;;;;;0.95;0.52;;;27.20;61.10;;;;;;10493984;28;20496;-36
2023/07/19 20:00:44;;;;;;;1.10;0.50;;;28.30;58.50;;;;;;10492929;28;20127;-36
2023/07/19 20:05:46;;;;;;;1.20;0.55;;;27.70;60.90;;;;;;10496804;28;20083;-35
2023/07/19 20:10:54;;;;;;;2.83;0.60;;;28.30;58.60;;;;;;10495595;28;20044;-35
2023/07/19 20:15:59;;;;;;;2.50;0.77;;;28.30;58.30;;;;;;10507831;28;20052;-35
2023/07/19 20:21:01;;;;;;;1.55;0.75;;;28.40;58.00;;;;;;10489732;28;20047;-35
2023/07/19 20:26:05;;;;;;;3.80;0.90;;;28.30;58.20;;;;;;10495587;28;20044;-35
2023/07/19 20:31:06;;;;;;;1.42;0.90;;;28.30;57.90;;;;;;10496236;28;20090;-35
2023/07/19 20:36:10;;;;;;;1.67;0.88;;;28.40;58.00;;;;;;10494291;28;20136;-35
2023/07/19 20:41:13;;;;;;;2.13;1.10;;;28.30;58.00;;;;;;10488734;28;20055;-35
2023/07/19 20:46:15;;;;;;;6.25;1.98;;;27.90;58.90;;;;;;10489771;28;20067;-36
2023/07/19 20:51:18;;;;;;;3.30;1.60;;;27.60;59.70;;;;;;10493705;28;20110;-35
2023/07/19 20:56:22;;;;;;;3.67;1.35;;;27.70;59.80;;;;;;10494577;28;20044;-36
2023/07/19 21:01:24;;;;;;;3.05;1.33;;;28.10;58.90;;;;;;10492707;28;20417;-36
2023/07/19 21:06:26;;;;;;;5.35;1.42;;;28.10;58.80;;;;;;10493761;28;20090;-36
2023/07/19 21:11:29;;;;;;;2.78;1.02;;;28.10;58.90;;;;;;10493202;28;20139;-34
2023/07/19 21:16:31;;;;;;;4.35;1.17;;;28.10;58.90;;;;;;10493530;28;20572;-34
2023/07/19 21:21:33;;;;;;;2.40;0.82;;;28.00;59.00;;;;;;10493997;28;20075;-36
2023/07/19 21:26:37;;;;;;;2.17;1.00;;;28.00;58.90;;;;;;10491997;28;21286;-34
2023/07/19 21:31:39;;;;;;;5.13;1.90;;;28.00;59.00;;;;;;10488444;28;20056;-36
2023/07/19 21:36:41;;;;;;;2.80;1.20;;;28.00;59.10;;;;;;10496378;28;20459;-36
2023/07/19 21:41:44;;;;;;;3.25;1.20;;;27.90;59.10;;;;;;10490933;28;20473;-45
2023/07/19 21:46:46;;;;;;;3.20;1.00;;;27.90;59.20;;;;;;10472318;28;20044;-36
2023/07/19 21:51:48;;;;;;;2.65;0.90;;;27.90;59.30;;;;;;10490291;28;20045;-36
2023/07/19 21:56:51;;;;;;;4.72;1.00;;;27.90;59.30;;;;;;10491737;28;20084;-35
2023/07/19 22:01:53;;;;;;;3.05;1.08;;;27.80;59.30;;;;;;10490952;28;20052;-35
2023/07/19 22:06:55;;;;;;;4.13;0.98;;;27.80;59.40;;;;;;10488544;28;20099;-36
2023/07/19 22:11:58;;;;;;;1.95;1.00;;;27.80;59.40;;;;;;10491446;28;20553;-35
2023/07/19 22:17:00;;;;;;;4.57;0.80;;;27.70;59.60;;;;;;10482868;28;20142;-36
2023/07/19 22:22:02;;;;;;;2.83;0.90;;;27.70;59.60;;;;;;10491077;28;20496;-35
2023/07/19 22:27:06;;;;;;;3.05;0.88;;;27.30;60.50;;;;;;10490851;28;20064;-36
2023/07/19 22:32:08;;;;;;;1.40;0.65;;;27.40;60.20;;;;;;10490711;28;20612;-36
2023/07/19 22:37:10;;;;;;;3.75;0.90;;;27.50;60.70;;;;;;10489483;28;20048;-34
2023/07/19 22:42:14;;;;;;;3.10;0.98;;;27.50;59.90;;;;;;10491084;28;20553;-34
2023/07/19 22:47:15;;;;;;;1.73;0.52;;;27.10;60.90;;;;;;10490826;28;20071;-36
2023/07/19 22:52:17;;;;;;;2.55;0.90;;;27.40;60.10;;;;;;10489265;28;20090;-35
2023/07/19 22:57:21;;;;;;;1.77;0.68;;;27.40;60.00;;;;;;10488366;28;20052;-35
2023/07/19 23:02:22;;;;;;;2.03;0.80;;;27.50;60.00;;;;;;10489113;28;20516;-34
2023/07/19 23:07:24;;;;;;;1.70;0.60;;;27.40;60.00;;;;;;10478847;28;20458;-33
2023/07/19 23:12:28;;;;;;;2.42;0.77;;;27.40;60.00;;;;;;10487374;28;20056;-35
2023/07/19 23:17:30;;;;;;;1.80;0.73;;;27.40;60.10;;;;;;10488011;28;20110;-35
2023/07/19 23:22:32;;;;;;;2.17;0.90;;;27.30;60.00;;;;;;10488238;28;20138;-34
2023/07/19 23:27:35;;;;;;;0.73;0.50;;;26.80;60.60;;;;;;10489472;28;20045;-34
2023/07/19 23:32:37;;;;;;;2.53;0.82;;;26.90;60.90;;;;;;10495778;28;20135;-32
2023/07/19 23:37:39;;;;;;;1.58;0.93;;;26.90;60.60;;;;;;10505895;28;20071;-34
2023/07/19 23:42:42;;;;;;;1.02;0.63;;;27.00;60.80;;;;;;10490343;28;20110;-35
2023/07/19 23:47:44;;;;;;;1.42;0.90;;;27.20;60.50;;;;;;10495373;28;20058;-35
2023/07/19 23:52:46;;;;;;;0.80;0.60;;;27.10;60.40;;;;;;10497863;28;20052;-37
2023/07/19 23:57:49;;;;;;;1.77;0.70;;;27.20;60.30;;;;;;10488190;28;20055;-35
